sensor_id;sensor_type;location;lat;lon;timestamp;pressure;altitude;pressure_sealevel;temperature;humidity
21902;BME280;11115;46.038;14.612;2023-04-27T00:02:25;98548.72;;;9.34;100.00
21902;BME280;11115;46.038;14.612;2023-04-27T00:04:56;98538.09;;;9.41;100.00
21902;BME280;11115;46.038;14.612;2023-04-27T00:07:31;98548.72;;;9.34;100.00
21902;BME280;11115;46.038;14.612;2023-04-27T00:10:04;98544.81;;;9.35;100.00
21902;BME280;11115;46.038;14.612;2023-04-27T00:12:38;98526.41;;;8.93;100.00
21902;BME280;11115;46.038;14.612;2023-04-27T00:15:11;98547.56;;;8.98;100.00
21902;BME280;11115;46.038;14.612;2023-04-27T00:17:41;98537.53;;;8.88;100.00
21902;BME280;11115;46.038;14.612;2023-04-27T00:20:11;98541.66;;;8.86;100.00
21902;BME280;11115;46.038;14.612;2023-04-27T00:22:54;98523.44;;;8.66;100.00
21902;BME280;11115;46.038;14.612;2023-04-27T00:25:25;98555.53;;;8.80;100.00
21902;BME280;11115;46.038;14.612;2023-04-27T00:27:57;98560.09;;;8.90;100.00
21902;BME280;11115;46.038;14.612;2023-04-27T00:30:29;98552.06;;;9.12;100.00
21902;BME280;11115;46.038;14.612;2023-04-27T00:33:01;98549.66;;;9.25;100.00
21902;BME280;11115;46.038;14.612;2023-04-27T00:35:32;98550.66;;;9.15;100.00
21902;BME280;11115;46.038;14.612;2023-04-27T00:38:01;98551.03;;;9.27;100.00
21902;BME280;11115;46.038;14.612;2023-04-27T00:40:38;98530.50;;;9.15;100.00
21902;BME280;11115;46.038;14.612;2023-04-27T00:43:07;98559.53;;;9.31;100.00
21902;BME280;11115;46.038;14.612;2023-04-27T00:45:40;98551.38;;;9.21;100.00
21902;BME280;11115;46.038;14.612;2023-04-27T00:48:12;98564.22;;;9.30;100.00
21902;BME280;11115;46.038;14.612;2023-04-27T00:50:42;98548.63;;;9.21;100.00
21902;BME280;11115;46.038;14.612;2023-04-27T00:53:14;98549.44;;;9.21;100.00
21902;BME280;11115;46.038;14.612;2023-04-27T00:55:42;98565.41;;;9.24;100.00
21902;BME280;11115;46.038;14.612;2023-04-27T00:58:10;98559.75;;;9.34;100.00
21902;BME280;11115;46.038;14.612;2023-04-27T01:00:40;98552.81;;;9.37;100.00
21902;BME280;11115;46.038;14.612;2023-04-27T01:03:16;98560.28;;;9.36;100.00
21902;BME280;11115;46.038;14.612;2023-04-27T01:05:44;98560.13;;;9.28;100.00
21902;BME280;11115;46.038;14.612;2023-04-27T01:08:29;98552.97;;;9.08;100.00
21902;BME280;11115;46.038;14.612;2023-04-27T01:10:57;98570.19;;;9.19;100.00
21902;BME280;11115;46.038;14.612;2023-04-27T01:13:29;98572.72;;;9.15;100.00
21902;BME280;11115;46.038;14.612;2023-04-27T01:16:00;98571.69;;;9.11;100.00
21902;BME280;11115;46.038;14.612;2023-04-27T01:18:32;98565.34;;;9.10;100.00
21902;BME280;11115;46.038;14.612;2023-04-27T01:21:09;98564.50;;;8.91;100.00
21902;BME280;11115;46.038;14.612;2023-04-27T01:23:46;98562.31;;;8.69;100.00
21902;BME280;11115;46.038;14.612;2023-04-27T01:26:14;98564.09;;;8.79;100.00
21902;BME280;11115;46.038;14.612;2023-04-27T01:28:57;98565.38;;;8.87;100.00
21902;BME280;11115;46.038;14.612;2023-04-27T01:31:28;98570.66;;;8.83;100.00
21902;BME280;11115;46.038;14.612;2023-04-27T01:34:01;98553.16;;;8.74;100.00
21902;BME280;11115;46.038;14.612;2023-04-27T01:36:39;98555.81;;;8.79;100.00
21902;BME280;11115;46.038;14.612;2023-04-27T01:39:10;98570.91;;;9.05;100.00
21902;BME280;11115;46.038;14.612;2023-04-27T01:41:42;98575.91;;;9.03;100.00
21902;BME280;11115;46.038;14.612;2023-04-27T01:44:26;98570.16;;;9.00;100.00
21902;BME280;11115;46.038;14.612;2023-04-27T01:46:56;98572.41;;;8.98;100.00
21902;BME280;11115;46.038;14.612;2023-04-27T01:49:28;98574.22;;;9.07;100.00
21902;BME280;11115;46.038;14.612;2023-04-27T01:52:04;98558.91;;;8.96;100.00
21902;BME280;11115;46.038;14.612;2023-04-27T01:54:36;98570.69;;;9.02;100.00
21902;BME280;11115;46.038;14.612;2023-04-27T01:57:21;98566.81;;;9.03;100.00
21902;BME280;11115;46.038;14.612;2023-04-27T02:00:00;98570.38;;;8.85;100.00
21902;BME280;11115;46.038;14.612;2023-04-27T02:02:50;98573.41;;;8.83;100.00
21902;BME280;11115;46.038;14.612;2023-04-27T02:05:35;98584.53;;;8.78;100.00
21902;BME280;11115;46.038;14.612;2023-04-27T02:08:06;98567.75;;;8.74;100.00
21902;BME280;11115;46.038;14.612;2023-04-27T02:10:36;98577.00;;;8.83;100.00
21902;BME280;11115;46.038;14.612;2023-04-27T02:13:06;98577.81;;;8.84;100.00
21902;BME280;11115;46.038;14.612;2023-04-27T02:15:37;98589.06;;;8.69;100.00
21902;BME280;11115;46.038;14.612;2023-04-27T02:18:20;98578.31;;;8.67;100.00
21902;BME280;11115;46.038;14.612;2023-04-27T02:20:49;98574.91;;;8.75;100.00
21902;BME280;11115;46.038;14.612;2023-04-27T02:23:20;98561.22;;;8.65;100.00
21902;BME280;11115;46.038;14.612;2023-04-27T02:25:51;98575.25;;;8.45;100.00
21902;BME280;11115;46.038;14.612;2023-04-27T02:28:20;98583.66;;;8.35;100.00
21902;BME280;11115;46.038;14.612;2023-04-27T02:30:54;98562.09;;;8.08;100.00
21902;BME280;11115;46.038;14.612;2023-04-27T02:33:31;98578.13;;;8.06;100.00
21902;BME280;11115;46.038;14.612;2023-04-27T02:36:07;98591.09;;;8.34;100.00
21902;BME280;11115;46.038;14.612;2023-04-27T02:38:38;98592.19;;;8.33;100.00
21902;BME280;11115;46.038;14.612;2023-04-27T02:41:09;98594.56;;;8.45;100.00
21902;BME280;11115;46.038;14.612;2023-04-27T02:43:40;98600.72;;;8.37;100.00
21902;BME280;11115;46.038;14.612;2023-04-27T02:46:22;98594.41;;;8.02;100.00
21902;BME280;11115;46.038;14.612;2023-04-27T02:48:52;98572.69;;;7.67;100.00
21902;BME280;11115;46.038;14.612;2023-04-27T02:51:23;98600.41;;;7.41;100.00
21902;BME280;11115;46.038;14.612;2023-04-27T02:53:52;98601.31;;;7.26;100.00
21902;BME280;11115;46.038;14.612;2023-04-27T02:56:31;98594.41;;;7.29;100.00
21902;BME280;11115;46.038;14.612;2023-04-27T02:59:14;98588.53;;;7.02;100.00
21902;BME280;11115;46.038;14.612;2023-04-27T03:01:45;98595.84;;;7.21;100.00
21902;BME280;11115;46.038;14.612;2023-04-27T03:04:41;98596.88;;;7.36;100.00
21902;BME280;11115;46.038;14.612;2023-04-27T03:07:12;98588.72;;;7.59;100.00
21902;BME280;11115;46.038;14.612;2023-04-27T03:09:42;98594.78;;;7.56;100.00
21902;BME280;11115;46.038;14.612;2023-04-27T03:12:15;98594.13;;;7.30;100.00
21902;BME280;11115;46.038;14.612;2023-04-27T03:14:48;98596.66;;;7.22;100.00
21902;BME280;11115;46.038;14.612;2023-04-27T03:17:16;98587.50;;;7.37;100.00
21902;BME280;11115;46.038;14.612;2023-04-27T03:19:46;98577.91;;;7.34;100.00
21902;BME280;11115;46.038;14.612;2023-04-27T03:22:26;98606.91;;;7.11;100.00
21902;BME280;11115;46.038;14.612;2023-04-27T03:24:58;98608.66;;;6.97;100.00
21902;BME280;11115;46.038;14.612;2023-04-27T03:27:28;98602.66;;;6.80;100.00
21902;BME280;11115;46.038;14.612;2023-04-27T03:29:59;98610.38;;;6.73;100.00
21902;BME280;11115;46.038;14.612;2023-04-27T03:32:29;98614.09;;;6.37;100.00
21902;BME280;11115;46.038;14.612;2023-04-27T03:35:07;98624.78;;;6.44;100.00
21902;BME280;11115;46.038;14.612;2023-04-27T03:37:38;98622.56;;;6.46;100.00
21902;BME280;11115;46.038;14.612;2023-04-27T03:40:12;98626.47;;;6.20;100.00
21902;BME280;11115;46.038;14.612;2023-04-27T03:42:43;98630.31;;;6.14;100.00
21902;BME280;11115;46.038;14.612;2023-04-27T03:45:10;98627.56;;;6.08;100.00
21902;BME280;11115;46.038;14.612;2023-04-27T03:47:42;98631.16;;;6.09;100.00
21902;BME280;11115;46.038;14.612;2023-04-27T03:50:26;98634.13;;;6.33;100.00
21902;BME280;11115;46.038;14.612;2023-04-27T03:52:56;98632.78;;;6.10;100.00
21902;BME280;11115;46.038;14.612;2023-04-27T03:55:27;98607.25;;;5.84;100.00
21902;BME280;11115;46.038;14.612;2023-04-27T03:58:03;98630.28;;;6.34;100.00
21902;BME280;11115;46.038;14.612;2023-04-27T04:01:01;98628.38;;;6.29;100.00
21902;BME280;11115;46.038;14.612;2023-04-27T04:03:47;98624.56;;;5.79;100.00
21902;BME280;11115;46.038;14.612;2023-04-27T04:06:18;98597.91;;;5.55;100.00
21902;BME280;11115;46.038;14.612;2023-04-27T04:08:52;98617.94;;;5.55;100.00
21902;BME280;11115;46.038;14.612;2023-04-27T04:11:34;98627.56;;;5.63;100.00
21902;BME280;11115;46.038;14.612;2023-04-27T04:14:06;98632.50;;;5.81;100.00
21902;BME280;11115;46.038;14.612;2023-04-27T04:16:52;98626.47;;;5.94;100.00
21902;BME280;11115;46.038;14.612;2023-04-27T04:19:26;98631.44;;;6.07;100.00
21902;BME280;11115;46.038;14.612;2023-04-27T04:21:57;98636.38;;;5.90;100.00
21902;BME280;11115;46.038;14.612;2023-04-27T04:24:36;98635.53;;;5.95;100.00
21902;BME280;11115;46.038;14.612;2023-04-27T04:27:09;98639.13;;;6.05;100.00
21902;BME280;11115;46.038;14.612;2023-04-27T04:29:42;98642.41;;;6.07;100.00
21902;BME280;11115;46.038;14.612;2023-04-27T04:32:13;98640.50;;;5.93;100.00
21902;BME280;11115;46.038;14.612;2023-04-27T04:34:54;98640.22;;;5.94;100.00
21902;BME280;11115;46.038;14.612;2023-04-27T04:37:32;98642.41;;;5.82;100.00
21902;BME280;11115;46.038;14.612;2023-04-27T04:40:10;98649.78;;;5.61;100.00
21902;BME280;11115;46.038;14.612;2023-04-27T04:42:41;98648.97;;;5.61;100.00
21902;BME280;11115;46.038;14.612;2023-04-27T04:45:10;98661.88;;;5.75;100.00
21902;BME280;11115;46.038;14.612;2023-04-27T04:47:43;98650.63;;;5.67;100.00
21902;BME280;11115;46.038;14.612;2023-04-27T04:50:34;98676.19;;;5.93;100.00
21902;BME280;11115;46.038;14.612;2023-04-27T04:53:07;98624.25;;;5.56;100.00
21902;BME280;11115;46.038;14.612;2023-04-27T04:55:37;98689.00;;;5.52;100.00
21902;BME280;11115;46.038;14.612;2023-04-27T04:58:09;98694.50;;;5.46;100.00
21902;BME280;11115;46.038;14.612;2023-04-27T05:00:41;98699.53;;;5.90;100.00
21902;BME280;11115;46.038;14.612;2023-04-27T05:03:14;98705.03;;;6.26;100.00
21902;BME280;11115;46.038;14.612;2023-04-27T05:05:56;98705.59;;;6.38;100.00
21902;BME280;11115;46.038;14.612;2023-04-27T05:08:35;98700.59;;;6.55;100.00
21902;BME280;11115;46.038;14.612;2023-04-27T05:11:07;98649.22;;;6.46;100.00
21902;BME280;11115;46.038;14.612;2023-04-27T05:13:36;98698.81;;;7.05;100.00
21902;BME280;11115;46.038;14.612;2023-04-27T05:16:20;98696.06;;;7.05;100.00
21902;BME280;11115;46.038;14.612;2023-04-27T05:18:51;98697.97;;;7.10;100.00
21902;BME280;11115;46.038;14.612;2023-04-27T05:21:24;98687.59;;;6.96;100.00
21902;BME280;11115;46.038;14.612;2023-04-27T05:23:52;98693.53;;;7.19;100.00
21902;BME280;11115;46.038;14.612;2023-04-27T05:26:37;98698.16;;;7.28;100.00
21902;BME280;11115;46.038;14.612;2023-04-27T05:29:13;98703.28;;;7.55;100.00
21902;BME280;11115;46.038;14.612;2023-04-27T05:31:44;98707.56;;;7.77;100.00
21902;BME280;11115;46.038;14.612;2023-04-27T05:34:15;98688.38;;;8.01;100.00
21902;BME280;11115;46.038;14.612;2023-04-27T05:36:48;98700.22;;;8.01;100.00
21902;BME280;11115;46.038;14.612;2023-04-27T05:39:20;98708.19;;;8.03;100.00
21902;BME280;11115;46.038;14.612;2023-04-27T05:41:57;98705.28;;;8.23;100.00
21902;BME280;11115;46.038;14.612;2023-04-27T05:44:30;98691.72;;;8.32;100.00
21902;BME280;11115;46.038;14.612;2023-04-27T05:47:00;98686.66;;;8.44;100.00
21902;BME280;11115;46.038;14.612;2023-04-27T05:49:49;98673.25;;;8.32;100.00
21902;BME280;11115;46.038;14.612;2023-04-27T05:52:20;98668.97;;;8.50;100.00
21902;BME280;11115;46.038;14.612;2023-04-27T05:54:50;98678.91;;;8.75;100.00
21902;BME280;11115;46.038;14.612;2023-04-27T05:57:30;98693.66;;;8.60;100.00
21902;BME280;11115;46.038;14.612;2023-04-27T06:00:07;98697.25;;;8.61;100.00
21902;BME280;11115;46.038;14.612;2023-04-27T06:02:39;98688.63;;;8.67;100.00
21902;BME280;11115;46.038;14.612;2023-04-27T06:05:10;98686.41;;;8.69;100.00
21902;BME280;11115;46.038;14.612;2023-04-27T06:07:41;98678.03;;;8.79;100.00
21902;BME280;11115;46.038;14.612;2023-04-27T06:10:25;98643.81;;;8.80;100.00
21902;BME280;11115;46.038;14.612;2023-04-27T06:13:00;98644.63;;;8.81;100.00
21902;BME280;11115;46.038;14.612;2023-04-27T06:15:28;98651.25;;;8.80;100.00
21902;BME280;11115;46.038;14.612;2023-04-27T06:18:01;98663.84;;;8.91;100.00
21902;BME280;11115;46.038;14.612;2023-04-27T06:20:33;98674.44;;;9.03;100.00
21902;BME280;11115;46.038;14.612;2023-04-27T06:23:03;98672.16;;;9.10;100.00
21902;BME280;11115;46.038;14.612;2023-04-27T06:25:34;98642.44;;;9.02;100.00
21902;BME280;11115;46.038;14.612;2023-04-27T06:28:09;98657.66;;;9.42;100.00
21902;BME280;11115;46.038;14.612;2023-04-27T06:30:40;98657.91;;;9.46;100.00
21902;BME280;11115;46.038;14.612;2023-04-27T06:33:23;98655.66;;;9.48;100.00
21902;BME280;11115;46.038;14.612;2023-04-27T06:36:01;98653.19;;;9.65;100.00
21902;BME280;11115;46.038;14.612;2023-04-27T06:38:48;98649.84;;;9.68;100.00
21902;BME280;11115;46.038;14.612;2023-04-27T06:41:16;98689.53;;;10.10;100.00
21902;BME280;11115;46.038;14.612;2023-04-27T06:43:45;98687.38;;;10.25;100.00
21902;BME280;11115;46.038;14.612;2023-04-27T06:46:14;98702.75;;;10.31;100.00
21902;BME280;11115;46.038;14.612;2023-04-27T06:48:45;98713.69;;;10.55;100.00
21902;BME280;11115;46.038;14.612;2023-04-27T06:51:21;98708.50;;;10.68;100.00
21902;BME280;11115;46.038;14.612;2023-04-27T06:53:54;98716.13;;;10.89;100.00
21902;BME280;11115;46.038;14.612;2023-04-27T06:56:32;98711.53;;;11.26;100.00
21902;BME280;11115;46.038;14.612;2023-04-27T06:59:04;98708.03;;;11.34;100.00
21902;BME280;11115;46.038;14.612;2023-04-27T07:01:34;98706.47;;;11.55;100.00
21902;BME280;11115;46.038;14.612;2023-04-27T07:04:12;98712.81;;;11.56;100.00
21902;BME280;11115;46.038;14.612;2023-04-27T07:06:47;98675.91;;;11.61;100.00
21902;BME280;11115;46.038;14.612;2023-04-27T07:09:29;98694.75;;;11.72;100.00
21902;BME280;11115;46.038;14.612;2023-04-27T07:12:01;98693.09;;;11.85;100.00
21902;BME280;11115;46.038;14.612;2023-04-27T07:14:33;98678.91;;;12.00;100.00
21902;BME280;11115;46.038;14.612;2023-04-27T07:17:05;98671.03;;;12.16;100.00
21902;BME280;11115;46.038;14.612;2023-04-27T07:19:38;98674.00;;;12.20;100.00
21902;BME280;11115;46.038;14.612;2023-04-27T07:22:11;98676.69;;;12.33;100.00
21902;BME280;11115;46.038;14.612;2023-04-27T07:24:41;98676.13;;;12.23;100.00
21902;BME280;11115;46.038;14.612;2023-04-27T07:27:17;98672.63;;;12.62;100.00
21902;BME280;11115;46.038;14.612;2023-04-27T07:30:00;98669.13;;;12.48;100.00
21902;BME280;11115;46.038;14.612;2023-04-27T07:32:42;98678.19;;;12.62;100.00
21902;BME280;11115;46.038;14.612;2023-04-27T07:35:14;98675.66;;;12.74;100.00
21902;BME280;11115;46.038;14.612;2023-04-27T07:37:54;98667.50;;;12.77;100.00
21902;BME280;11115;46.038;14.612;2023-04-27T07:40:35;98650.09;;;12.94;100.00
21902;BME280;11115;46.038;14.612;2023-04-27T07:43:09;98661.84;;;12.60;100.00
21902;BME280;11115;46.038;14.612;2023-04-27T07:45:39;98673.16;;;12.72;100.00
21902;BME280;11115;46.038;14.612;2023-04-27T07:48:13;98658.78;;;12.70;100.00
21902;BME280;11115;46.038;14.612;2023-04-27T07:50:56;98674.78;;;13.35;100.00
21902;BME280;11115;46.038;14.612;2023-04-27T07:53:30;98674.63;;;13.41;100.00
21902;BME280;11115;46.038;14.612;2023-04-27T07:56:13;98673.72;;;13.71;100.00
21902;BME280;11115;46.038;14.612;2023-04-27T07:58:42;98674.56;;;13.89;100.00
21902;BME280;11115;46.038;14.612;2023-04-27T08:01:10;98661.47;;;13.98;100.00
21902;BME280;11115;46.038;14.612;2023-04-27T08:03:56;98692.72;;;14.04;100.00
21902;BME280;11115;46.038;14.612;2023-04-27T08:06:28;98685.78;;;13.66;100.00
21902;BME280;11115;46.038;14.612;2023-04-27T08:09:03;98686.50;;;13.89;100.00
21902;BME280;11115;46.038;14.612;2023-04-27T08:11:32;98686.47;;;13.72;100.00
21902;BME280;11115;46.038;14.612;2023-04-27T08:14:04;98682.69;;;13.68;100.00
21902;BME280;11115;46.038;14.612;2023-04-27T08:16:43;98689.00;;;13.34;100.00
21902;BME280;11115;46.038;14.612;2023-04-27T08:19:11;98694.78;;;13.55;100.00
21902;BME280;11115;46.038;14.612;2023-04-27T08:21:41;98690.00;;;13.47;100.00
21902;BME280;11115;46.038;14.612;2023-04-27T08:24:14;98687.09;;;13.60;100.00
21902;BME280;11115;46.038;14.612;2023-04-27T08:26:45;98687.31;;;13.73;100.00
21902;BME280;11115;46.038;14.612;2023-04-27T08:29:19;98678.47;;;13.79;100.00
21902;BME280;11115;46.038;14.612;2023-04-27T08:31:59;98670.97;;;13.88;100.00
21902;BME280;11115;46.038;14.612;2023-04-27T08:34:30;98658.38;;;13.91;100.00
21902;BME280;11115;46.038;14.612;2023-04-27T08:36:58;98657.38;;;13.87;100.00
21902;BME280;11115;46.038;14.612;2023-04-27T08:39:30;98646.09;;;14.01;100.00
21902;BME280;11115;46.038;14.612;2023-04-27T08:41:59;98643.00;;;13.93;100.00
21902;BME280;11115;46.038;14.612;2023-04-27T08:44:39;98652.63;;;14.31;100.00
21902;BME280;11115;46.038;14.612;2023-04-27T08:47:12;98657.69;;;14.46;100.00
21902;BME280;11115;46.038;14.612;2023-04-27T08:49:52;98646.06;;;14.35;100.00
21902;BME280;11115;46.038;14.612;2023-04-27T08:52:22;98658.50;;;14.55;100.00
21902;BME280;11115;46.038;14.612;2023-04-27T08:54:56;98658.41;;;14.81;100.00
21902;BME280;11115;46.038;14.612;2023-04-27T08:57:31;98653.38;;;15.12;100.00
21902;BME280;11115;46.038;14.612;2023-04-27T09:00:04;98643.41;;;15.70;100.00
21902;BME280;11115;46.038;14.612;2023-04-27T09:02:47;98648.06;;;15.58;100.00
21902;BME280;11115;46.038;14.612;2023-04-27T09:05:19;98644.88;;;15.38;100.00
21902;BME280;11115;46.038;14.612;2023-04-27T09:08:02;98657.25;;;15.29;100.00
21902;BME280;11115;46.038;14.612;2023-04-27T09:10:49;98663.97;;;15.28;100.00
21902;BME280;11115;46.038;14.612;2023-04-27T09:13:19;98666.97;;;16.02;100.00
21902;BME280;11115;46.038;14.612;2023-04-27T09:15:50;98660.88;;;15.79;100.00
21902;BME280;11115;46.038;14.612;2023-04-27T09:18:27;98669.94;;;15.76;100.00
21902;BME280;11115;46.038;14.612;2023-04-27T09:20:59;98654.16;;;15.81;100.00
21902;BME280;11115;46.038;14.612;2023-04-27T09:23:32;98646.81;;;15.46;100.00
21902;BME280;11115;46.038;14.612;2023-04-27T09:26:04;98655.34;;;16.00;100.00
21902;BME280;11115;46.038;14.612;2023-04-27T09:28:38;98643.91;;;15.93;100.00
21902;BME280;11115;46.038;14.612;2023-04-27T09:31:13;98645.66;;;15.77;100.00
21902;BME280;11115;46.038;14.612;2023-04-27T09:33:44;98641.00;;;15.60;100.00
21902;BME280;11115;46.038;14.612;2023-04-27T09:36:29;98644.84;;;15.76;100.00
21902;BME280;11115;46.038;14.612;2023-04-27T09:39:08;98637.06;;;16.24;100.00
21902;BME280;11115;46.038;14.612;2023-04-27T09:41:40;98634.97;;;16.54;100.00
21902;BME280;11115;46.038;14.612;2023-04-27T09:44:13;98641.75;;;16.65;100.00
21902;BME280;11115;46.038;14.612;2023-04-27T09:46:50;98637.44;;;16.01;100.00
21902;BME280;11115;46.038;14.612;2023-04-27T09:49:23;98620.22;;;16.20;100.00
21902;BME280;11115;46.038;14.612;2023-04-27T09:52:02;98638.25;;;16.23;100.00
21902;BME280;11115;46.038;14.612;2023-04-27T09:54:41;98637.94;;;16.69;100.00
21902;BME280;11115;46.038;14.612;2023-04-27T10:01:03;98628.09;;;16.96;100.00
21902;BME280;11115;46.038;14.612;2023-04-27T10:09:40;98614.91;;;16.06;100.00
21902;BME280;11115;46.038;14.612;2023-04-27T10:12:34;98622.47;;;16.06;100.00
21902;BME280;11115;46.038;14.612;2023-04-27T10:15:15;98618.84;;;16.05;100.00
21902;BME280;11115;46.038;14.612;2023-04-27T10:17:50;98625.88;;;16.45;100.00
21902;BME280;11115;46.038;14.612;2023-04-27T10:20:35;98614.50;;;16.62;100.00
21902;BME280;11115;46.038;14.612;2023-04-27T10:23:04;98612.41;;;16.59;100.00
21902;BME280;11115;46.038;14.612;2023-04-27T10:25:47;98597.31;;;16.27;100.00
21902;BME280;11115;46.038;14.612;2023-04-27T10:28:20;98611.44;;;16.09;100.00
21902;BME280;11115;46.038;14.612;2023-04-27T10:30:50;98605.28;;;16.49;100.00
21902;BME280;11115;46.038;14.612;2023-04-27T10:33:24;98606.13;;;15.96;100.00
21902;BME280;11115;46.038;14.612;2023-04-27T10:35:57;98603.84;;;15.47;100.00
21902;BME280;11115;46.038;14.612;2023-04-27T10:38:39;98602.94;;;15.85;100.00
21902;BME280;11115;46.038;14.612;2023-04-27T10:41:13;98604.91;;;16.05;100.00
21902;BME280;11115;46.038;14.612;2023-04-27T10:43:43;98596.72;;;16.21;100.00
21902;BME280;11115;46.038;14.612;2023-04-27T10:46:26;98609.50;;;16.22;100.00
21902;BME280;11115;46.038;14.612;2023-04-27T10:49:00;98599.81;;;16.41;100.00
21902;BME280;11115;46.038;14.612;2023-04-27T10:51:32;98604.34;;;16.78;100.00
21902;BME280;11115;46.038;14.612;2023-04-27T10:54:02;98603.16;;;16.67;100.00
21902;BME280;11115;46.038;14.612;2023-04-27T10:56:35;98602.38;;;16.58;100.00
21902;BME280;11115;46.038;14.612;2023-04-27T10:59:05;98603.97;;;16.67;100.00
21902;BME280;11115;46.038;14.612;2023-04-27T11:01:35;98594.75;;;16.34;100.00
21902;BME280;11115;46.038;14.612;2023-04-27T11:04:19;98599.31;;;16.38;100.00
21902;BME280;11115;46.038;14.612;2023-04-27T11:07:01;98590.38;;;16.45;100.00
21902;BME280;11115;46.038;14.612;2023-04-27T11:09:37;98593.25;;;16.69;100.00
21902;BME280;11115;46.038;14.612;2023-04-27T11:12:30;98590.59;;;16.85;100.00
21902;BME280;11115;46.038;14.612;2023-04-27T11:15:15;98587.09;;;16.88;100.00
21902;BME280;11115;46.038;14.612;2023-04-27T11:17:45;98561.84;;;16.85;100.00
21902;BME280;11115;46.038;14.612;2023-04-27T11:20:23;98585.13;;;17.13;100.00
21902;BME280;11115;46.038;14.612;2023-04-27T11:23:30;98587.94;;;17.38;100.00
21902;BME280;11115;46.038;14.612;2023-04-27T11:26:21;98586.97;;;17.34;100.00
21902;BME280;11115;46.038;14.612;2023-04-27T11:29:18;98575.00;;;17.21;100.00
21902;BME280;11115;46.038;14.612;2023-04-27T11:31:50;98586.53;;;17.19;100.00
21902;BME280;11115;46.038;14.612;2023-04-27T11:34:24;98571.63;;;17.40;100.00
21902;BME280;11115;46.038;14.612;2023-04-27T11:36:58;98583.28;;;17.17;100.00
21902;BME280;11115;46.038;14.612;2023-04-27T11:39:47;98572.22;;;17.21;100.00
21902;BME280;11115;46.038;14.612;2023-04-27T11:42:26;98576.53;;;17.83;100.00
21902;BME280;11115;46.038;14.612;2023-04-27T11:45:03;98576.72;;;18.02;100.00
21902;BME280;11115;46.038;14.612;2023-04-27T11:47:34;98571.81;;;17.59;100.00
21902;BME280;11115;46.038;14.612;2023-04-27T11:50:11;98565.78;;;17.97;100.00
21902;BME280;11115;46.038;14.612;2023-04-27T11:52:47;98565.81;;;17.85;100.00
21902;BME280;11115;46.038;14.612;2023-04-27T11:55:21;98575.00;;;18.41;100.00
21902;BME280;11115;46.038;14.612;2023-04-27T11:57:56;98547.66;;;17.79;100.00
21902;BME280;11115;46.038;14.612;2023-04-27T12:00:28;98570.78;;;17.92;100.00
21902;BME280;11115;46.038;14.612;2023-04-27T12:02:58;98569.59;;;18.48;100.00
21902;BME280;11115;46.038;14.612;2023-04-27T12:05:29;98536.69;;;18.45;100.00
21902;BME280;11115;46.038;14.612;2023-04-27T12:08:12;98567.84;;;19.70;100.00
21902;BME280;11115;46.038;14.612;2023-04-27T12:10:44;98568.69;;;19.55;100.00
21902;BME280;11115;46.038;14.612;2023-04-27T12:13:16;98570.03;;;18.50;100.00
21902;BME280;11115;46.038;14.612;2023-04-27T12:15:49;98561.88;;;18.30;90.88
21902;BME280;11115;46.038;14.612;2023-04-27T12:18:20;98543.81;;;18.27;92.15
21902;BME280;11115;46.038;14.612;2023-04-27T12:20:50;98551.38;;;18.86;100.00
21902;BME280;11115;46.038;14.612;2023-04-27T12:23:17;98562.09;;;18.37;100.00
21902;BME280;11115;46.038;14.612;2023-04-27T12:25:52;98566.88;;;18.08;100.00
21902;BME280;11115;46.038;14.612;2023-04-27T12:28:22;98552.09;;;18.67;100.00
21902;BME280;11115;46.038;14.612;2023-04-27T12:30:54;98555.63;;;18.64;100.00
21902;BME280;11115;46.038;14.612;2023-04-27T12:33:28;98558.38;;;18.33;100.00
21902;BME280;11115;46.038;14.612;2023-04-27T12:36:03;98547.09;;;19.75;100.00
21902;BME280;11115;46.038;14.612;2023-04-27T12:38:33;98553.00;;;20.08;100.00
21902;BME280;11115;46.038;14.612;2023-04-27T12:41:06;98537.19;;;19.81;100.00
21902;BME280;11115;46.038;14.612;2023-04-27T12:43:36;98548.09;;;20.44;100.00
21902;BME280;11115;46.038;14.612;2023-04-27T12:46:10;98530.09;;;20.06;100.00
21902;BME280;11115;46.038;14.612;2023-04-27T12:48:40;98544.72;;;19.96;100.00
21902;BME280;11115;46.038;14.612;2023-04-27T12:51:09;98536.44;;;20.65;100.00
21902;BME280;11115;46.038;14.612;2023-04-27T12:53:42;98527.19;;;20.02;100.00
21902;BME280;11115;46.038;14.612;2023-04-27T12:56:15;98511.66;;;20.47;100.00
21902;BME280;11115;46.038;14.612;2023-04-27T12:58:47;98528.00;;;19.84;100.00
21902;BME280;11115;46.038;14.612;2023-04-27T13:01:20;98513.47;;;19.08;100.00
21902;BME280;11115;46.038;14.612;2023-04-27T13:03:53;98519.91;;;20.40;100.00
21902;BME280;11115;46.038;14.612;2023-04-27T13:06:35;98493.13;;;21.18;100.00
21902;BME280;11115;46.038;14.612;2023-04-27T13:09:09;98496.44;;;21.50;100.00
21902;BME280;11115;46.038;14.612;2023-04-27T13:11:41;98502.00;;;21.20;96.79
21902;BME280;11115;46.038;14.612;2023-04-27T13:14:15;98503.41;;;21.07;84.91
21902;BME280;11115;46.038;14.612;2023-04-27T13:16:49;98506.13;;;22.17;100.00
21902;BME280;11115;46.038;14.612;2023-04-27T13:19:28;98503.28;;;22.54;92.75
21902;BME280;11115;46.038;14.612;2023-04-27T13:22:01;98478.84;;;22.24;92.86
21902;BME280;11115;46.038;14.612;2023-04-27T13:24:37;98504.00;;;22.84;84.48
21902;BME280;11115;46.038;14.612;2023-04-27T13:27:15;98515.47;;;25.15;57.34
21902;BME280;11115;46.038;14.612;2023-04-27T13:29:44;98507.72;;;27.53;40.59
21902;BME280;11115;46.038;14.612;2023-04-27T13:32:22;98482.81;;;31.24;43.39
21902;BME280;11115;46.038;14.612;2023-04-27T13:34:53;98485.94;;;29.66;38.90